Kalaheo, HI

11:10 PM HST on March 26, 2015 (GMT -1000)
Koloa Landing - Whaler's Cove | | Change Station
CLOSE
Current Station
Personal Weather Station
Location: Koloa, HI
Elevation: 25 ft
Nearby Weather Stations

Elev 25 ft 21.88 °N, 159.47 °W | Updated 11 seconds ago

Overcast
Overcast
68.7 °F
Feels Like 68.7 °F
N
2.7
Wind Variable Wind from NE
Gusts 4.9 mph

Today
High -- | Low -- °F
--% Chance of Precip.
Yesterday
High -- | Low -- °F
Precip. -- in
6:36 AM 6:51 PM
Waxing Crescent, 51% visible
Pressure 30.21 in
Visibility 10.0 miles
Clouds Overcast 3900 ft
Dew Point 66 °F
Humidity 90%
Rainfall in
Snow Depth Not available.
UV 0 out of 12
Pollen Not available.
Air Quality Not available.
Flu Activity Not available.
METAR PHLI 270853Z AUTO 07013KT 10SM OVC039 23/16 A3022 RMK AO2 SLP230 T02330161 50007 TSNO

More Conditions Fewer Conditions

Pressure 30.21 in
Visibility 10.0 miles
Clouds Overcast 3900 ft
Dew Point 66 °F
Humidity 90%
Rainfall in
Snow Depth Not available.
UV 0 out of 12
Pollen Not available.
Air Quality Not available.
Flu Activity Not available.
METAR PHLI 270853Z AUTO 07013KT 10SM OVC039 23/16 A3022 RMK AO2 SLP230 T02330161 50007 TSNO

More Conditions Fewer Conditions

10-Day Weather Forecast

Almanac

Astronomy

Mar. 26, 2015 Rise Set
Actual Time
Civil Twilight
Nautical Twilight
Astronomical Twilight
Moon
Length of Visible Light
Length of Day
Tomorrow will be .
, % of the Moon is Illuminated

Today's Extremes

State Highs State Lows

Community

WunderPhotos

Upload Photos

1,808,705 photos uploaded!

WunderBlogs® & News

Nearby

Air Quality

  Air Quality AQ Index Pollutant
Not available.

Snow Depth

Station Depth Elevation

Earthquake Activity

City Distance Mag. Time & Date
Minimum magnitude displayed is 2.5.

Coastal Water Temperatures

Place Temperature

Stations

Nearby Weather Stations

Station Location Temp. Windchill Dew Point Humidity Wind Precip. Elev Updated Type